createdAt,value
2023-04-09T00:03:58.413Z,99193.91
2023-04-09T00:09:00.809Z,99188.13
2023-04-09T00:14:02.809Z,99182.38
2023-04-09T00:19:04.562Z,99183.19
2023-04-09T00:24:06.468Z,99189.16
2023-04-09T00:29:08.212Z,99186.69
2023-04-09T00:34:10.412Z,99187.94
2023-04-09T00:39:12.411Z,99171.06
2023-04-09T00:44:14.352Z,99176.22
2023-04-09T00:49:16.432Z,99176.94
2023-04-09T00:54:18.862Z,99182.78
2023-04-09T00:59:20.890Z,99183.63
2023-04-09T01:04:24.812Z,99184.44
2023-04-09T01:09:32.870Z,99185.16
2023-04-09T01:14:57.815Z,99183.09
2023-04-09T01:19:59.969Z,99187.31
2023-04-09T01:25:18.255Z,99199.03
2023-04-09T01:30:22.034Z,99185.47
2023-04-09T01:35:26.686Z,99185.66
2023-04-09T01:40:28.696Z,99194.50
2023-04-09T01:45:30.556Z,99198.00
2023-04-09T01:50:33.342Z,99195.66
2023-04-09T01:55:35.558Z,99194.94
2023-04-09T02:00:47.086Z,99196.56
2023-04-09T02:06:12.847Z,99205.22
2023-04-09T02:11:16.616Z,99196.88
2023-04-09T02:16:19.481Z,99201.28
2023-04-09T02:21:22.851Z,99204.91
2023-04-09T02:26:24.813Z,99211.78
2023-04-09T02:31:26.655Z,99210.25
2023-04-09T02:36:29.072Z,99208.69
2023-04-09T02:41:30.949Z,99213.00
2023-04-09T02:46:32.898Z,99212.19
2023-04-09T02:51:36.085Z,99201.91
2023-04-09T02:56:38.177Z,99210.53
2023-04-09T03:01:40.163Z,99205.59
2023-04-09T03:06:42.073Z,99210.94
2023-04-09T03:11:43.873Z,99213.63
2023-04-09T03:16:45.672Z,99213.00
2023-04-09T03:21:49.386Z,99208.97
2023-04-09T03:26:53.682Z,99202.19
2023-04-09T03:31:55.905Z,99200.44
2023-04-09T03:36:58.549Z,99202.91
2023-04-09T03:42:04.595Z,99199.31
2023-04-09T03:47:17.641Z,99206.84
2023-04-09T03:52:19.655Z,99217.63
2023-04-09T03:57:29.335Z,99209.00
2023-04-09T04:02:33.829Z,99218.25
2023-04-09T04:07:39.377Z,99214.66
2023-04-09T04:12:46.071Z,99216.41
2023-04-09T04:18:01.346Z,99212.09
2023-04-09T04:23:22.437Z,99209.53
2023-04-09T04:28:38.510Z,99214.56
2023-04-09T04:33:42.960Z,99217.75
2023-04-09T04:38:50.685Z,99219.19
2023-04-09T04:44:01.505Z,99221.56
2023-04-09T04:49:03.594Z,99229.06
2023-04-09T04:54:07.556Z,99233.81
2023-04-09T04:59:09.671Z,99225.88
2023-04-09T05:04:24.147Z,99221.25
2023-04-09T05:09:26.410Z,99218.47
2023-04-09T05:14:35.806Z,99227.53
2023-04-09T05:19:37.719Z,99222.06
2023-04-09T05:24:39.904Z,99227.00
2023-04-09T05:29:42.222Z,99235.97
2023-04-09T05:34:45.055Z,99231.00
2023-04-09T05:39:47.073Z,99242.38
2023-04-09T05:44:49.072Z,99234.34
2023-04-09T05:49:54.658Z,99240.78
2023-04-09T05:54:57.202Z,99253.63
2023-04-09T06:00:08.486Z,99243.91
2023-04-09T06:05:18.519Z,99236.72
2023-04-09T06:10:22.165Z,99233.25
2023-04-09T06:15:24.441Z,99227.44
2023-04-09T06:20:26.290Z,99225.00
2023-04-09T06:25:28.126Z,99234.16
2023-04-09T06:30:31.990Z,99232.06
2023-04-09T06:35:34.015Z,99232.53
2023-04-09T06:40:39.292Z,99238.06
2023-04-09T06:45:41.249Z,99238.22
2023-04-09T06:50:44.436Z,99247.13
2023-04-09T06:55:46.391Z,99244.22
2023-04-09T07:00:48.270Z,99240.94
2023-04-09T07:05:50.673Z,99236.97
2023-04-09T07:10:52.818Z,99259.50
2023-04-09T07:15:54.565Z,99256.69
2023-04-09T07:20:56.429Z,99246.00
2023-04-09T07:25:58.301Z,99264.31
2023-04-09T07:31:04.985Z,99257.97
2023-04-09T07:36:07.103Z,99253.38
2023-04-09T07:41:11.639Z,99251.56
2023-04-09T07:46:19.872Z,99248.25
2023-04-09T07:51:22.244Z,99258.44
2023-04-09T07:56:24.272Z,99256.44
2023-04-09T08:01:26.659Z,99257.47
2023-04-09T08:06:28.414Z,99250.72
2023-04-09T08:11:30.623Z,99267.56
2023-04-09T08:16:33.202Z,99260.88
2023-04-09T08:21:38.431Z,99256.38
2023-04-09T08:26:41.610Z,99246.38
2023-04-09T08:31:43.603Z,99253.81
2023-04-09T08:36:46.590Z,99261.00
2023-04-09T08:41:48.700Z,99273.88
2023-04-09T08:46:51.148Z,99272.81
2023-04-09T08:51:52.980Z,99271.47
2023-04-09T08:56:54.740Z,99274.50
2023-04-09T09:02:11.334Z,99261.97
2023-04-09T09:07:14.609Z,99261.19
2023-04-09T09:12:41.516Z,99278.56
2023-04-09T09:17:54.998Z,99282.63
2023-04-09T09:22:57.075Z,99270.78
2023-04-09T09:28:09.653Z,99274.91
2023-04-09T09:33:12.318Z,99272.78
2023-04-09T09:38:16.043Z,99263.69
2023-04-09T09:43:18.096Z,99265.75
2023-04-09T09:48:20.016Z,99261.41
2023-04-09T09:53:24.780Z,99250.53
2023-04-09T09:58:34.142Z,99249.97
2023-04-09T10:03:39.761Z,99245.75
2023-04-09T10:08:44.090Z,99247.38
2023-04-09T10:13:58.620Z,99243.16
2023-04-09T10:19:01.688Z,99241.75
2023-04-09T10:24:06.595Z,99227.84
2023-04-09T10:29:14.029Z,99225.69
2023-04-09T10:34:24.055Z,99228.41
2023-04-09T10:39:32.111Z,99225.53
2023-04-09T10:44:36.391Z,99219.13
2023-04-09T10:49:40.537Z,99211.19
2023-04-09T10:54:46.746Z,99214.59
2023-04-09T10:59:54.319Z,99218.00
2023-04-09T11:05:23.294Z,99210.88
2023-04-09T11:10:25.257Z,99203.75
2023-04-09T11:15:27.412Z,99201.94
2023-04-09T11:20:31.342Z,99211.22
2023-04-09T11:25:35.390Z,99214.06
2023-04-09T11:30:37.642Z,99213.03
2023-04-09T11:35:39.703Z,99214.88
2023-04-09T11:40:49.922Z,99209.22
2023-04-09T11:45:52.137Z,99206.47
2023-04-09T11:50:54.366Z,99196.16
2023-04-09T11:55:56.459Z,99203.22
2023-04-09T12:00:59.365Z,99192.25
2023-04-09T12:06:03.112Z,99200.97
2023-04-09T12:11:30.247Z,99192.28
2023-04-09T12:16:35.906Z,99198.75
2023-04-09T12:21:53.104Z,99196.00
2023-04-09T12:26:54.971Z,99197.94
2023-04-09T12:31:56.787Z,99190.69
2023-04-09T12:36:58.642Z,99197.28
2023-04-09T12:42:01.185Z,99198.16
2023-04-09T12:47:03.014Z,99190.81
2023-04-09T12:52:04.887Z,99192.19
2023-04-09T12:57:07.047Z,99185.19
2023-04-09T13:02:11.890Z,99184.88
2023-04-09T13:07:16.122Z,99179.69
2023-04-09T13:12:18.460Z,99169.25
2023-04-09T13:17:20.412Z,99168.13
2023-04-09T13:22:22.322Z,99166.34
2023-04-09T13:27:24.241Z,99161.81
2023-04-09T13:32:26.181Z,99152.72
2023-04-09T13:37:28.091Z,99152.56
2023-04-09T13:42:29.996Z,99153.84
2023-04-09T13:47:31.957Z,99145.53
2023-04-09T13:52:33.890Z,99152.66
2023-04-09T13:57:35.802Z,99144.25
2023-04-09T14:02:37.849Z,99136.84
2023-04-09T14:07:39.706Z,99130.47
2023-04-09T14:12:41.878Z,99135.63
2023-04-09T14:17:44.175Z,99132.66
2023-04-09T14:22:49.227Z,99126.75
2023-04-09T14:27:52.204Z,99131.28
2023-04-09T14:32:54.022Z,99127.09
2023-04-09T14:37:55.966Z,99125.88
2023-04-09T14:42:59.420Z,99126.78
2023-04-09T14:48:01.420Z,99117.50
2023-04-09T14:53:05.967Z,99114.34
2023-04-09T14:58:08.280Z,99109.00
2023-04-09T15:03:10.470Z,99107.41
2023-04-09T15:08:13.358Z,99111.00
2023-04-09T15:13:15.595Z,99110.72
2023-04-09T15:18:17.773Z,99102.94
2023-04-09T15:23:20.463Z,99098.53
2023-04-09T15:28:22.227Z,99092.50
2023-04-09T15:33:24.144Z,99099.03
2023-04-09T15:38:26.219Z,99093.84
2023-04-09T15:43:28.081Z,99101.34
2023-04-09T15:48:29.942Z,99095.47
2023-04-09T15:53:32.094Z,99102.63
2023-04-09T15:58:34.130Z,99094.31
2023-04-09T16:03:42.330Z,99102.94
2023-04-09T16:08:44.291Z,99100.50
2023-04-09T16:13:46.315Z,99100.66
2023-04-09T16:18:48.130Z,99090.69
2023-04-09T16:23:49.932Z,99106.13
2023-04-09T16:28:52.029Z,99102.41
2023-04-09T16:33:54.360Z,99105.66
2023-04-09T16:38:56.317Z,99104.50
2023-04-09T16:43:58.347Z,99099.09
2023-04-09T16:49:00.357Z,99099.72
2023-04-09T16:54:04.333Z,99097.78
2023-04-09T16:59:06.111Z,99101.63
2023-04-09T17:04:08.059Z,99110.16
2023-04-09T17:09:09.952Z,99110.41
2023-04-09T17:14:12.181Z,99118.97
2023-04-09T17:19:14.072Z,99116.03
2023-04-09T17:24:15.974Z,99115.66
2023-04-09T17:29:20.695Z,99126.00
2023-04-09T17:34:23.217Z,99126.75
2023-04-09T17:39:25.225Z,99128.75
2023-04-09T17:44:27.269Z,99134.03
2023-04-09T17:49:32.637Z,99131.34
2023-04-09T17:54:35.155Z,99129.47
2023-04-09T17:59:38.209Z,99135.56
2023-04-09T18:04:43.357Z,99140.00
2023-04-09T18:09:45.331Z,99138.94
2023-04-09T18:14:49.292Z,99141.47
2023-04-09T18:19:54.528Z,99142.75
2023-04-09T18:24:56.635Z,99149.94
2023-04-09T18:29:59.375Z,99147.38
2023-04-09T18:35:02.469Z,99158.47
2023-04-09T18:40:04.735Z,99160.81
2023-04-09T18:45:06.959Z,99167.53
2023-04-09T18:50:09.633Z,99170.69
2023-04-09T18:55:11.868Z,99167.69
2023-04-09T19:00:14.250Z,99160.19
2023-04-09T19:05:16.396Z,99167.44
2023-04-09T19:10:18.240Z,99168.53
2023-04-09T19:15:26.367Z,99171.13
2023-04-09T19:20:28.815Z,99167.72
2023-04-09T19:25:31.415Z,99164.44
2023-04-09T19:30:33.204Z,99160.06
2023-04-09T19:35:38.044Z,99173.59
2023-04-09T19:40:39.849Z,99169.09
2023-04-09T19:45:42.750Z,99167.16
2023-04-09T19:50:45.438Z,99162.66
2023-04-09T19:55:47.350Z,99155.69
2023-04-09T20:00:49.974Z,99149.69
2023-04-09T20:05:52.014Z,99151.88
2023-04-09T20:10:55.008Z,99152.44
2023-04-09T20:15:57.231Z,99159.81
2023-04-09T20:20:59.296Z,99167.59
2023-04-09T20:26:02.702Z,99173.34
2023-04-09T20:31:05.149Z,99175.66
2023-04-09T20:36:27.325Z,99160.63
2023-04-09T20:41:29.770Z,99167.72
2023-04-09T20:46:31.793Z,99164.44
2023-04-09T20:51:33.869Z,99152.44
2023-04-09T20:56:36.010Z,99152.19
2023-04-09T21:01:37.944Z,99155.78
2023-04-09T21:06:40.571Z,99161.78
2023-04-09T21:11:42.348Z,99164.50
2023-04-09T21:16:44.320Z,99168.72
2023-04-09T21:21:46.306Z,99163.28
2023-04-09T21:26:50.980Z,99163.69
2023-04-09T21:31:54.244Z,99173.63
2023-04-09T21:36:58.875Z,99184.41
2023-04-09T21:42:00.714Z,99187.56
2023-04-09T21:47:07.589Z,99177.88
2023-04-09T21:52:14.893Z,99173.50
2023-04-09T21:57:17.183Z,99168.59
2023-04-09T22:02:19.271Z,99168.03
2023-04-09T22:07:21.268Z,99176.34
2023-04-09T22:12:23.234Z,99171.84
2023-04-09T22:17:25.095Z,99170.75
2023-04-09T22:22:27.256Z,99159.28
2023-04-09T22:27:29.168Z,99160.63
2023-04-09T22:32:33.538Z,99161.16
2023-04-09T22:37:36.376Z,99164.28
2023-04-09T22:42:40.150Z,99163.03
2023-04-09T22:47:42.086Z,99165.06
2023-04-09T22:52:44.156Z,99160.28
2023-04-09T22:57:46.168Z,99170.09
2023-04-09T23:02:48.162Z,99174.03
2023-04-09T23:07:51.452Z,99181.25
2023-04-09T23:12:53.372Z,99177.41
2023-04-09T23:17:55.587Z,99171.78
2023-04-09T23:22:57.666Z,99160.31
2023-04-09T23:27:59.562Z,99160.16
2023-04-09T23:33:01.543Z,99153.84
2023-04-09T23:38:03.531Z,99151.78
2023-04-09T23:43:05.493Z,99151.34
2023-04-09T23:48:08.976Z,99157.03
2023-04-09T23:53:11.038Z,99148.84
2023-04-09T23:58:14.271Z,99161.31
